createdAt,value
2018-06-02T00:01:01.051Z,8.27
2018-06-02T00:03:30.009Z,8.10
2018-06-02T00:05:58.995Z,7.63
2018-06-02T00:08:27.974Z,7.73
2018-06-02T00:10:56.966Z,7.53
2018-06-02T00:13:25.927Z,7.60
2018-06-02T00:15:54.930Z,8.63
2018-06-02T00:18:23.903Z,7.23
2018-06-02T00:20:52.885Z,7.80
2018-06-02T00:23:22.859Z,9.43
2018-06-02T00:25:51.828Z,8.60
2018-06-02T00:28:20.871Z,8.80
2018-06-02T00:30:50.090Z,8.30
2018-06-02T00:33:19.042Z,9.70
2018-06-02T00:35:48.007Z,9.47
2018-06-02T00:38:16.981Z,9.00
2018-06-02T00:40:45.938Z,8.57
2018-06-02T00:43:14.971Z,9.43
2018-06-02T00:45:43.926Z,10.83
2018-06-02T00:48:12.887Z,10.83
2018-06-02T00:50:41.893Z,10.80
2018-06-02T00:53:10.836Z,10.37
2018-06-02T00:55:39.796Z,10.50
2018-06-02T00:58:08.782Z,10.50
2018-06-02T01:00:37.771Z,11.53
2018-06-02T01:03:06.790Z,10.50
2018-06-02T01:05:35.763Z,10.40
2018-06-02T01:08:04.749Z,10.50
2018-06-02T01:10:33.754Z,11.60
2018-06-02T01:13:02.686Z,11.80
2018-06-02T01:15:31.666Z,11.60
2018-06-02T01:18:00.744Z,10.97
2018-06-02T01:20:29.713Z,12.47
2018-06-02T01:22:58.696Z,12.03
2018-06-02T01:25:27.719Z,11.30
2018-06-02T01:27:56.696Z,10.60
2018-06-02T01:30:25.653Z,11.17
2018-06-02T01:32:54.658Z,11.70
2018-06-02T01:35:23.617Z,10.07
2018-06-02T01:37:53.987Z,10.70
2018-06-02T01:40:23.392Z,10.53
2018-06-02T01:42:52.367Z,11.33
2018-06-02T01:45:21.390Z,12.43
2018-06-02T01:47:50.327Z,12.23
2018-06-02T01:50:20.305Z,12.27
2018-06-02T01:52:49.314Z,13.23
2018-06-02T01:55:18.283Z,11.57
2018-06-02T01:57:47.260Z,12.33
2018-06-02T02:00:16.284Z,12.07
2018-06-02T02:02:45.411Z,11.73
2018-06-02T02:05:14.370Z,11.70
2018-06-02T02:07:43.378Z,11.13
2018-06-02T02:10:12.326Z,11.23
2018-06-02T02:12:41.292Z,11.73
2018-06-02T02:15:10.327Z,11.23
2018-06-02T02:17:39.288Z,11.40
2018-06-02T02:20:08.249Z,11.30
2018-06-02T02:22:37.269Z,10.73
2018-06-02T02:25:06.233Z,9.73
2018-06-02T02:27:35.484Z,10.90
2018-06-02T02:30:04.555Z,10.77
2018-06-02T02:32:33.525Z,10.77
2018-06-02T02:35:02.881Z,10.77
2018-06-02T02:37:31.899Z,11.10
2018-06-02T02:40:00.833Z,11.50
2018-06-02T02:42:29.788Z,10.23
2018-06-02T02:44:58.808Z,11.40
2018-06-02T02:47:28.452Z,12.23
2018-06-02T02:49:57.384Z,11.07
2018-06-02T02:52:26.383Z,10.50
2018-06-02T02:54:55.375Z,11.27
2018-06-02T02:57:24.391Z,11.43
2018-06-02T02:59:53.354Z,11.73
2018-06-02T03:02:22.306Z,11.87
2018-06-02T03:04:51.302Z,10.60
2018-06-02T03:07:20.262Z,11.30
2018-06-02T03:09:49.236Z,11.07
2018-06-02T03:12:18.263Z,11.37
2018-06-02T03:14:47.236Z,11.20
2018-06-02T03:17:16.202Z,11.70
2018-06-02T03:19:45.221Z,11.53
2018-06-02T03:22:14.166Z,11.43
2018-06-02T03:24:43.189Z,12.87
2018-06-02T03:27:12.186Z,12.17
2018-06-02T03:29:41.141Z,11.97
2018-06-02T03:32:10.158Z,12.07
2018-06-02T03:34:39.118Z,12.57
2018-06-02T03:37:08.095Z,11.20
2018-06-02T03:39:37.136Z,11.83
2018-06-02T03:42:06.126Z,12.67
2018-06-02T03:44:35.105Z,11.70
2018-06-02T03:47:04.566Z,12.40
2018-06-02T03:49:33.523Z,12.77
2018-06-02T03:52:02.480Z,12.90
2018-06-02T03:54:31.314Z,12.57
2018-06-02T03:57:00.625Z,12.77
2018-06-02T03:59:29.639Z,12.43
2018-06-02T04:01:58.634Z,13.33
2018-06-02T04:04:27.586Z,12.50
2018-06-02T04:06:56.574Z,14.47
2018-06-02T04:09:25.527Z,13.60
2018-06-02T04:11:54.600Z,16.33
2018-06-02T04:14:23.549Z,15.67
2018-06-02T04:16:52.506Z,16.70
2018-06-02T04:19:21.600Z,16.17
2018-06-02T04:21:50.597Z,16.33
2018-06-02T04:24:19.571Z,15.73
2018-06-02T04:26:48.635Z,14.87
2018-06-02T04:29:17.616Z,14.37
2018-06-02T04:31:46.573Z,16.93
2018-06-02T04:34:15.589Z,18.83
2018-06-02T04:36:44.574Z,18.17
2018-06-02T04:39:13.559Z,16.17
2018-06-02T04:41:42.559Z,17.50
2018-06-02T04:44:11.540Z,16.10
2018-06-02T04:46:40.559Z,16.47
2018-06-02T04:49:09.511Z,17.13
2018-06-02T04:51:38.474Z,16.17
2018-06-02T04:54:07.506Z,17.30
2018-06-02T04:56:36.459Z,16.67
2018-06-02T04:59:05.465Z,15.37
2018-06-02T05:01:34.443Z,15.77
2018-06-02T05:04:03.380Z,17.17
2018-06-02T05:06:32.400Z,16.20
2018-06-02T05:09:01.353Z,16.13
2018-06-02T05:11:30.324Z,15.87
2018-06-02T05:13:59.337Z,15.40
2018-06-02T05:16:29.224Z,15.80
2018-06-02T05:18:58.198Z,14.60
2018-06-02T05:21:27.208Z,14.77
2018-06-02T05:23:56.148Z,14.60
2018-06-02T05:26:25.122Z,13.40
2018-06-02T05:28:54.122Z,12.20
2018-06-02T05:31:23.071Z,13.13
2018-06-02T05:33:52.113Z,12.73
2018-06-02T05:36:21.064Z,12.40
2018-06-02T05:38:50.031Z,12.00
2018-06-02T05:41:19.054Z,9.33
2018-06-02T05:43:48.015Z,9.07
2018-06-02T05:46:16.975Z,8.43
2018-06-02T05:48:45.985Z,7.00
2018-06-02T05:51:14.956Z,7.53
2018-06-02T05:53:43.990Z,6.53
2018-06-02T05:56:12.964Z,7.03
2018-06-02T05:58:42.520Z,7.30
2018-06-02T06:01:11.499Z,6.40
2018-06-02T06:03:40.503Z,6.57
2018-06-02T06:06:09.521Z,6.07
2018-06-02T06:08:38.470Z,6.40
2018-06-02T06:11:07.446Z,6.37
2018-06-02T06:13:36.462Z,5.97
2018-06-02T06:16:05.450Z,6.30
2018-06-02T06:18:34.411Z,6.57
2018-06-02T06:21:03.404Z,6.30
2018-06-02T06:23:32.357Z,6.03
2018-06-02T06:26:01.348Z,6.03
2018-06-02T06:28:30.391Z,6.60
2018-06-02T06:30:59.332Z,6.60
2018-06-02T06:33:28.282Z,6.67
2018-06-02T06:35:57.246Z,6.50
2018-06-02T06:38:26.186Z,5.97
2018-06-02T06:40:55.224Z,6.10
2018-06-02T06:43:24.179Z,5.87
2018-06-02T06:45:53.158Z,5.60
2018-06-02T06:48:22.285Z,5.27
2018-06-02T06:50:51.914Z,5.30
2018-06-02T06:53:20.913Z,5.20
2018-06-02T06:55:49.891Z,4.70
2018-06-02T06:58:18.837Z,4.73
2018-06-02T07:00:47.831Z,4.33
2018-06-02T07:03:16.777Z,5.27
2018-06-02T07:05:45.778Z,5.47
2018-06-02T07:08:15.621Z,5.13
2018-06-02T07:10:44.590Z,5.40
2018-06-02T07:13:13.593Z,4.80
2018-06-02T07:15:43.061Z,5.17
2018-06-02T07:18:12.326Z,4.70
2018-06-02T07:20:41.406Z,3.93
2018-06-02T07:23:10.370Z,4.50
2018-06-02T07:25:39.311Z,4.50
2018-06-02T07:28:08.317Z,4.60
2018-06-02T07:30:37.250Z,4.50
2018-06-02T07:33:06.245Z,4.80
2018-06-02T07:35:35.277Z,4.40
2018-06-02T07:38:04.736Z,4.30
2018-06-02T07:40:33.685Z,4.27
2018-06-02T07:43:02.667Z,3.93
2018-06-02T07:45:31.616Z,4.33
2018-06-02T07:48:00.599Z,3.80
2018-06-02T07:50:29.525Z,4.13
2018-06-02T07:52:58.474Z,4.00
2018-06-02T07:55:27.489Z,3.60
2018-06-02T07:57:56.412Z,4.00
2018-06-02T08:00:25.354Z,4.07
2018-06-02T08:02:54.335Z,4.73
2018-06-02T08:05:23.307Z,4.50
2018-06-02T08:07:52.266Z,4.37
2018-06-02T08:10:21.273Z,4.37
2018-06-02T08:12:50.224Z,4.60
2018-06-02T08:15:19.167Z,6.53
2018-06-02T08:17:48.171Z,6.03
2018-06-02T08:20:17.214Z,5.40
2018-06-02T08:22:46.190Z,5.70
2018-06-02T08:25:15.180Z,5.50
2018-06-02T08:27:44.129Z,5.27
2018-06-02T08:30:13.138Z,5.90
2018-06-02T08:32:42.094Z,5.77
2018-06-02T08:35:11.046Z,5.57
2018-06-02T08:37:40.034Z,5.40
2018-06-02T08:40:08.977Z,5.50
2018-06-02T08:42:37.922Z,4.80
2018-06-02T08:45:06.929Z,4.87
2018-06-02T08:47:35.916Z,4.53
2018-06-02T08:50:04.903Z,4.80
2018-06-02T08:52:33.930Z,4.33
2018-06-02T08:55:02.875Z,5.03
2018-06-02T08:57:31.830Z,4.10
2018-06-02T09:00:00.876Z,4.13
2018-06-02T09:02:29.824Z,4.43
2018-06-02T09:04:58.812Z,4.33
2018-06-02T09:07:27.784Z,3.90
2018-06-02T09:09:56.797Z,3.90
2018-06-02T09:12:25.758Z,3.67
2018-06-02T09:14:54.763Z,3.50
2018-06-02T09:17:24.027Z,3.57
2018-06-02T09:19:53.033Z,3.50
2018-06-02T09:22:21.993Z,3.47
2018-06-02T09:24:50.952Z,3.03
2018-06-02T09:27:19.938Z,3.17
2018-06-02T09:29:48.911Z,3.37
2018-06-02T09:32:18.450Z,3.30
2018-06-02T09:34:47.431Z,3.23
2018-06-02T09:37:17.148Z,3.10
2018-06-02T09:39:46.151Z,3.33
2018-06-02T09:42:15.101Z,3.23
2018-06-02T09:44:44.169Z,4.60
2018-06-02T09:47:13.278Z,3.77
2018-06-02T09:49:42.283Z,3.90
2018-06-02T09:52:11.241Z,3.53
2018-06-02T09:54:40.221Z,3.30
2018-06-02T09:57:09.203Z,3.80
2018-06-02T09:59:38.240Z,3.23
2018-06-02T10:02:07.273Z,3.00
2018-06-02T10:04:36.252Z,3.40
2018-06-02T10:07:05.322Z,2.90
2018-06-02T10:09:34.283Z,3.03
2018-06-02T10:12:03.227Z,3.30
2018-06-02T10:14:33.019Z,3.30
2018-06-02T10:17:01.959Z,2.70
2018-06-02T10:19:30.878Z,2.70
2018-06-02T10:21:59.853Z,2.90
2018-06-02T10:24:28.801Z,2.87
2018-06-02T10:26:57.868Z,3.10
2018-06-02T10:29:26.819Z,3.30
2018-06-02T10:31:55.766Z,2.90
2018-06-02T10:34:24.759Z,2.87
2018-06-02T10:36:53.693Z,3.00
2018-06-02T10:39:22.614Z,3.00
2018-06-02T10:41:51.592Z,3.10
2018-06-02T10:44:20.538Z,3.20
2018-06-02T10:46:49.771Z,2.90
2018-06-02T10:49:18.713Z,2.83
2018-06-02T10:51:47.654Z,2.70
2018-06-02T10:54:16.626Z,3.70
2018-06-02T10:56:47.504Z,2.70
2018-06-02T10:59:16.610Z,2.77
2018-06-02T11:01:45.595Z,2.70
2018-06-02T11:04:14.720Z,2.30
2018-06-02T11:06:43.699Z,3.03
2018-06-02T11:09:12.638Z,2.73
2018-06-02T11:11:41.573Z,2.77
2018-06-02T11:14:10.538Z,3.00
2018-06-02T11:16:39.482Z,2.70
2018-06-02T11:19:08.414Z,2.77
2018-06-02T11:21:37.397Z,2.43
2018-06-02T11:24:06.375Z,3.03
2018-06-02T11:26:35.376Z,2.67
2018-06-02T11:29:04.955Z,2.50
2018-06-02T11:31:33.889Z,2.73
2018-06-02T11:34:02.860Z,3.23
2018-06-02T11:36:32.079Z,3.17
2018-06-02T11:39:01.019Z,2.90
2018-06-02T11:41:30.030Z,2.33
2018-06-02T11:43:58.988Z,2.90
2018-06-02T11:46:27.918Z,2.50
2018-06-02T11:48:56.901Z,2.77
2018-06-02T11:51:25.829Z,2.70
2018-06-02T11:53:54.803Z,2.87
2018-06-02T11:56:23.741Z,2.87
2018-06-02T11:58:56.973Z,2.60
2018-06-02T12:01:25.903Z,2.70
2018-06-02T12:03:54.821Z,2.70
2018-06-02T12:06:23.770Z,2.57
2018-06-02T12:08:52.689Z,2.80
2018-06-02T12:11:21.641Z,3.10
2018-06-02T12:13:50.563Z,2.50
2018-06-02T12:16:19.766Z,2.63
2018-06-02T12:18:48.701Z,2.80
2018-06-02T12:21:17.626Z,2.70
2018-06-02T12:23:46.646Z,3.40
2018-06-02T12:26:15.590Z,2.70
2018-06-02T12:28:44.549Z,2.60
2018-06-02T12:31:13.913Z,2.63
2018-06-02T12:33:43.354Z,2.67
2018-06-02T12:36:12.408Z,2.63
2018-06-02T12:38:41.386Z,2.27
2018-06-02T12:41:10.414Z,2.10
2018-06-02T12:43:39.371Z,2.60
2018-06-02T12:46:08.186Z,2.40
2018-06-02T12:48:37.230Z,2.20
2018-06-02T12:51:06.180Z,2.00
2018-06-02T12:53:35.500Z,2.03
2018-06-02T12:56:04.499Z,2.40
2018-06-02T12:58:33.524Z,2.47
2018-06-02T13:01:02.506Z,2.30
2018-06-02T13:03:31.459Z,2.20
2018-06-02T13:06:00.485Z,2.30
2018-06-02T13:08:29.465Z,2.03
2018-06-02T13:10:58.442Z,2.30
2018-06-02T13:13:27.442Z,2.30
2018-06-02T13:15:56.384Z,2.13
2018-06-02T13:18:25.350Z,2.07
2018-06-02T13:20:54.327Z,2.03
2018-06-02T13:23:23.336Z,2.23
2018-06-02T13:25:52.031Z,1.70
2018-06-02T13:28:21.030Z,1.60
2018-06-02T13:30:49.990Z,1.93
2018-06-02T13:33:24.291Z,1.90
2018-06-02T13:35:53.278Z,1.83
2018-06-02T13:38:22.270Z,1.70
2018-06-02T13:40:51.269Z,1.70
2018-06-02T13:43:20.232Z,2.40
2018-06-02T13:45:49.540Z,1.73
2018-06-02T13:48:18.517Z,1.70
2018-06-02T13:50:47.535Z,2.17
2018-06-02T13:53:16.526Z,2.20
2018-06-02T13:55:45.565Z,2.40
2018-06-02T13:58:14.578Z,1.70
2018-06-02T14:00:43.555Z,1.77
2018-06-02T14:03:12.488Z,2.00
2018-06-02T14:05:41.527Z,1.80
2018-06-02T14:08:10.501Z,1.67
2018-06-02T14:10:39.491Z,1.47
2018-06-02T14:13:08.495Z,1.83
2018-06-02T14:15:37.731Z,1.83
2018-06-02T14:18:06.726Z,2.23
2018-06-02T14:20:35.690Z,2.83
2018-06-02T14:23:04.712Z,2.80
2018-06-02T14:25:33.689Z,2.83
2018-06-02T14:28:02.929Z,4.97
2018-06-02T14:30:31.898Z,3.97
2018-06-02T14:33:01.232Z,3.73
2018-06-02T14:35:35.262Z,4.03
2018-06-02T14:38:04.303Z,3.63
2018-06-02T14:40:33.491Z,3.60
2018-06-02T14:43:02.437Z,3.60
2018-06-02T14:45:31.402Z,3.50
2018-06-02T14:48:00.812Z,3.50
2018-06-02T14:50:29.786Z,3.47
2018-06-02T14:52:58.755Z,3.40
2018-06-02T14:55:27.705Z,4.07
2018-06-02T14:57:57.097Z,3.40
2018-06-02T15:00:26.199Z,2.80
2018-06-02T15:02:55.218Z,3.10
2018-06-02T15:05:24.281Z,2.73
2018-06-02T15:07:53.274Z,3.00
2018-06-02T15:10:22.330Z,3.03
2018-06-02T15:12:51.586Z,3.33
2018-06-02T15:15:20.726Z,3.43
2018-06-02T15:17:49.930Z,3.70
2018-06-02T15:20:19.428Z,6.57
2018-06-02T15:22:49.056Z,10.87
2018-06-02T15:25:18.545Z,5.80
2018-06-02T15:27:48.287Z,5.40
2018-06-02T15:30:17.454Z,4.80
2018-06-02T15:32:46.432Z,3.90
2018-06-02T15:35:15.551Z,4.03
2018-06-02T15:37:44.600Z,4.17
2018-06-02T15:40:13.679Z,3.07
2018-06-02T15:42:43.852Z,3.33
2018-06-02T15:45:14.138Z,3.23
2018-06-02T15:47:43.346Z,3.13
2018-06-02T15:50:12.446Z,3.27
2018-06-02T15:52:41.646Z,3.17
2018-06-02T15:55:10.720Z,3.13
2018-06-02T15:57:39.785Z,3.20
2018-06-02T16:00:08.846Z,2.63
2018-06-02T16:02:37.886Z,3.10
2018-06-02T16:05:06.928Z,2.80
2018-06-02T16:07:36.038Z,2.73
2018-06-02T16:10:05.106Z,2.97
2018-06-02T16:12:34.051Z,2.57
2018-06-02T16:15:03.000Z,2.90
2018-06-02T16:17:31.999Z,2.53
2018-06-02T16:20:00.930Z,2.80
2018-06-02T16:22:29.886Z,2.60
2018-06-02T16:24:58.885Z,2.40
2018-06-02T16:27:27.830Z,2.40
2018-06-02T16:29:56.817Z,2.53
2018-06-02T16:32:25.835Z,2.70
2018-06-02T16:34:54.788Z,2.63
2018-06-02T16:37:23.728Z,2.60
2018-06-02T16:39:53.232Z,2.70
2018-06-02T16:42:22.151Z,2.70
2018-06-02T16:44:51.137Z,2.73
2018-06-02T16:47:20.107Z,2.90
2018-06-02T16:49:49.277Z,2.60
2018-06-02T16:52:18.267Z,2.73
2018-06-02T16:54:47.274Z,2.93
2018-06-02T16:57:16.316Z,2.63
2018-06-02T16:59:45.258Z,2.80
2018-06-02T17:02:14.272Z,2.83
2018-06-02T17:04:43.212Z,3.10
2018-06-02T17:07:12.189Z,6.97
2018-06-02T17:09:41.157Z,30.90
2018-06-02T17:12:10.114Z,19.80
2018-06-02T17:14:39.128Z,11.77
2018-06-02T17:17:08.093Z,6.90
2018-06-02T17:19:37.046Z,24.60
2018-06-02T17:22:05.794Z,10.10
2018-06-02T17:24:34.763Z,8.53
2018-06-02T17:27:03.734Z,29.70
2018-06-02T17:29:32.738Z,44.43
2018-06-02T17:32:01.690Z,17.63
2018-06-02T17:34:30.671Z,12.77
2018-06-02T17:36:59.681Z,10.73
2018-06-02T17:39:28.632Z,8.87
2018-06-02T17:41:58.386Z,9.30
2018-06-02T17:44:27.495Z,9.77
2018-06-02T17:46:56.460Z,13.87
2018-06-02T17:49:25.471Z,22.43
2018-06-02T17:51:54.417Z,16.30
2018-06-02T17:54:23.376Z,17.60
2018-06-02T17:56:52.354Z,11.23
2018-06-02T17:59:21.277Z,8.70
2018-06-02T18:01:50.202Z,6.47
2018-06-02T18:04:19.161Z,6.20
2018-06-02T18:06:48.078Z,5.40
2018-06-02T18:09:17.075Z,5.50
2018-06-02T18:11:46.038Z,5.63
2018-06-02T18:14:15.014Z,7.10
2018-06-02T18:16:44.003Z,5.23
2018-06-02T18:19:12.952Z,6.27
2018-06-02T18:21:41.893Z,4.60
2018-06-02T18:24:10.919Z,5.10
2018-06-02T18:26:39.854Z,4.80
2018-06-02T18:29:08.802Z,4.77
2018-06-02T18:31:37.832Z,5.00
2018-06-02T18:34:06.450Z,5.40
2018-06-02T18:36:35.419Z,4.73
2018-06-02T18:39:03.892Z,4.40
2018-06-02T18:41:32.814Z,4.70
2018-06-02T18:44:01.786Z,5.27
2018-06-02T18:46:30.720Z,4.97
2018-06-02T18:48:59.686Z,4.90
2018-06-02T18:51:28.612Z,4.00
2018-06-02T18:53:57.552Z,4.77
2018-06-02T18:56:26.519Z,4.10
2018-06-02T18:58:55.451Z,4.20
2018-06-02T19:01:24.362Z,4.70
2018-06-02T19:03:53.326Z,4.50
2018-06-02T19:06:22.274Z,4.27
2018-06-02T19:08:51.249Z,4.60
2018-06-02T19:11:20.166Z,4.40
2018-06-02T19:13:49.104Z,4.50
2018-06-02T19:16:18.066Z,5.10
2018-06-02T19:18:46.989Z,5.23
2018-06-02T19:21:15.906Z,4.10
2018-06-02T19:23:44.870Z,5.60
2018-06-02T19:26:13.841Z,4.60
2018-06-02T19:28:42.814Z,5.00
2018-06-02T19:31:11.732Z,4.80
2018-06-02T19:33:40.647Z,4.67
2018-06-02T19:36:09.625Z,4.90
2018-06-02T19:38:38.545Z,4.90
2018-06-02T19:41:07.468Z,4.90
2018-06-02T19:43:36.555Z,4.40
2018-06-02T19:46:04.914Z,5.50
2018-06-02T19:48:33.884Z,5.00
2018-06-02T19:51:02.862Z,5.10
2018-06-02T19:53:31.818Z,4.50
2018-06-02T19:56:00.807Z,4.93
2018-06-02T19:58:29.850Z,5.40
2018-06-02T20:00:58.802Z,4.97
2018-06-02T20:03:27.831Z,5.63
2018-06-02T20:05:56.822Z,5.17
2018-06-02T20:08:25.771Z,6.27
2018-06-02T20:10:54.901Z,5.93
2018-06-02T20:13:23.890Z,6.50
2018-06-02T20:15:53.594Z,6.43
2018-06-02T20:18:24.229Z,6.20
2018-06-02T20:20:53.407Z,6.20
2018-06-02T20:23:23.262Z,7.20
2018-06-02T20:25:53.160Z,9.00
2018-06-02T20:28:23.400Z,7.80
2018-06-02T20:30:53.594Z,9.00
2018-06-02T20:33:23.790Z,8.07
2018-06-02T20:35:53.898Z,7.40
2018-06-02T20:38:24.165Z,7.47
2018-06-02T20:40:54.515Z,10.50
2018-06-02T20:43:25.151Z,9.07
2018-06-02T20:45:54.300Z,9.63
2018-06-02T20:48:24.088Z,9.73
2018-06-02T20:50:53.468Z,7.43
2018-06-02T20:53:24.408Z,14.23
2018-06-02T20:55:53.847Z,10.43
2018-06-02T20:58:22.843Z,7.67
2018-06-02T21:00:51.952Z,6.93
2018-06-02T21:03:21.029Z,7.80
2018-06-02T21:05:49.990Z,6.67
2018-06-02T21:08:19.002Z,6.40
2018-06-02T21:10:47.968Z,6.57
2018-06-02T21:13:16.975Z,6.53
2018-06-02T21:15:46.005Z,6.90
2018-06-02T21:18:15.118Z,9.87
2018-06-02T21:20:46.235Z,11.40
2018-06-02T21:23:15.379Z,9.97
2018-06-02T21:25:44.349Z,7.23
2018-06-02T21:28:13.330Z,7.20
2018-06-02T21:30:42.300Z,6.90
2018-06-02T21:33:11.318Z,7.47
2018-06-02T21:35:40.292Z,6.80
2018-06-02T21:38:09.351Z,6.30
2018-06-02T21:40:38.299Z,6.27
2018-06-02T21:43:07.347Z,6.53
2018-06-02T21:45:36.371Z,6.97
2018-06-02T21:48:05.522Z,6.30
2018-06-02T21:50:34.498Z,6.13
2018-06-02T21:53:03.458Z,6.33
2018-06-02T21:55:32.465Z,7.50
2018-06-02T21:58:01.446Z,6.40
2018-06-02T22:00:30.405Z,6.37
2018-06-02T22:02:59.156Z,6.67
2018-06-02T22:05:27.574Z,6.03
2018-06-02T22:07:57.037Z,6.87
2018-06-02T22:10:25.998Z,6.43
2018-06-02T22:12:55.033Z,6.87
2018-06-02T22:15:23.754Z,6.17
2018-06-02T22:17:52.771Z,6.13
2018-06-02T22:20:21.741Z,6.50
2018-06-02T22:22:55.345Z,7.80
2018-06-02T22:25:24.454Z,7.23
2018-06-02T22:27:53.496Z,7.17
2018-06-02T22:30:22.426Z,9.00
2018-06-02T22:32:51.426Z,8.90
2018-06-02T22:35:20.456Z,8.87
2018-06-02T22:37:49.416Z,7.83
2018-06-02T22:40:18.426Z,8.47
2018-06-02T22:42:47.415Z,9.13
2018-06-02T22:45:16.371Z,8.43
2018-06-02T22:47:45.434Z,8.70
2018-06-02T22:50:14.370Z,9.40
2018-06-02T22:52:43.091Z,10.23
2018-06-02T22:55:12.835Z,10.00
2018-06-02T22:57:41.248Z,10.13
2018-06-02T23:00:09.684Z,10.77
2018-06-02T23:02:38.628Z,11.73
2018-06-02T23:05:07.581Z,10.33
2018-06-02T23:07:36.012Z,10.43
2018-06-02T23:10:05.014Z,12.40
2018-06-02T23:12:34.249Z,12.73
2018-06-02T23:15:03.218Z,13.30
2018-06-02T23:17:32.158Z,13.17
2018-06-02T23:20:01.241Z,12.40
2018-06-02T23:22:39.382Z,12.63
2018-06-02T23:25:13.766Z,14.03
2018-06-02T23:27:43.101Z,13.48
2018-06-02T23:30:12.184Z,12.73
2018-06-02T23:32:41.121Z,13.60
2018-06-02T23:35:10.194Z,13.33
2018-06-02T23:37:39.152Z,13.10
2018-06-02T23:40:08.242Z,13.83
2018-06-02T23:42:37.233Z,13.17
2018-06-02T23:45:06.276Z,13.70
2018-06-02T23:47:36.168Z,13.97
2018-06-02T23:50:05.280Z,13.97
2018-06-02T23:52:34.254Z,14.10
2018-06-02T23:55:03.269Z,15.50
2018-06-02T23:57:32.223Z,15.33
